Time;durP1;ratioP1;P1;durP2;ratioP2;P2;SDS_P1;SDS_P2;PMS_P1;PMS_P2;Temp;Humidity;BMP_temperature;BMP_pressure;BME280_temperature;BME280_humidity;BME280_pressure;Samples;Min_cycle;Max_cycle;Signal;HPM_P1;HPM_P2
2022/04/24 00:00:28;;;;;;;57.97;2.40;;;;;;;;;;5093483;28;20462;-72
2022/04/24 00:02:55;;;;;;;57.93;2.53;;;;;;;;;;5093270;28;20450;-72
2022/04/24 00:05:22;;;;;;;58.13;2.60;;;;;;;;;;5093196;28;20538;-73
2022/04/24 00:07:49;;;;;;;58.13;2.63;;;;;;;;;;5092437;28;20445;-72
2022/04/24 00:10:16;;;;;;;58.27;2.77;;;;;;;;;;5092706;28;20500;-73
2022/04/24 00:12:46;;;;;;;58.20;2.70;;;;;;;;;;5093246;28;20465;-73
2022/04/24 00:15:13;;;;;;;58.20;3.07;;;;;;;;;;5093079;28;20450;-73
2022/04/24 00:17:41;;;;;;;58.33;3.00;;;;;;;;;;5091806;28;21096;-73
2022/04/24 00:20:08;;;;;;;58.03;2.67;;;;;;;;;;5092616;28;21047;-73
2022/04/24 00:22:36;;;;;;;58.17;2.83;;;;;;;;;;5092861;28;20445;-72
2022/04/24 00:25:03;;;;;;;58.20;2.90;;;;;;;;;;5092552;28;20532;-73
2022/04/24 00:27:30;;;;;;;58.37;2.77;;;;;;;;;;5092134;28;20552;-73
2022/04/24 00:29:58;;;;;;;58.17;2.57;;;;;;;;;;5092632;28;20476;-74
2022/04/24 00:32:25;;;;;;;58.17;2.70;;;;;;;;;;5092640;28;21022;-73
2022/04/24 00:34:53;;;;;;;58.17;3.00;;;;;;;;;;5092873;28;20452;-73
2022/04/24 00:37:20;;;;;;;58.03;2.80;;;;;;;;;;5092187;28;20575;-73
2022/04/24 00:39:47;;;;;;;57.97;2.80;;;;;;;;;;5091899;28;20471;-71
2022/04/24 00:42:14;;;;;;;58.07;2.60;;;;;;;;;;5092500;28;20455;-70
2022/04/24 00:44:41;;;;;;;58.20;2.60;;;;;;;;;;5092582;28;20535;-73
2022/04/24 00:47:12;;;;;;;57.87;2.57;;;;;;;;;;5092013;28;20447;-74
2022/04/24 00:49:40;;;;;;;58.00;2.80;;;;;;;;;;5091781;28;20481;-73
2022/04/24 00:52:07;;;;;;;58.13;2.90;;;;;;;;;;5091785;28;20541;-73
2022/04/24 00:54:34;;;;;;;58.27;2.70;;;;;;;;;;5091314;28;20450;-72
2022/04/24 00:57:01;;;;;;;58.77;3.67;;;;;;;;;;5091604;28;20583;-74
2022/04/24 00:59:28;;;;;;;58.10;2.50;;;;;;;;;;5090747;28;20822;-73
2022/04/24 01:01:55;;;;;;;58.23;2.83;;;;;;;;;;5091373;28;20455;-74
2022/04/24 01:04:24;;;;;;;58.07;2.70;;;;;;;;;;5091547;28;20563;-73
2022/04/24 01:06:52;;;;;;;58.27;2.70;;;;;;;;;;5091608;28;20823;-73
2022/04/24 01:09:20;;;;;;;57.87;2.80;;;;;;;;;;5090342;28;20469;-73
2022/04/24 01:11:48;;;;;;;58.00;2.70;;;;;;;;;;5091356;28;20449;-73
2022/04/24 01:14:16;;;;;;;58.17;2.57;;;;;;;;;;5091160;28;20535;-73
2022/04/24 01:16:44;;;;;;;58.13;2.70;;;;;;;;;;5091478;28;20506;-73
2022/04/24 01:19:11;;;;;;;58.07;2.50;;;;;;;;;;5090672;28;20500;-74
2022/04/24 01:21:42;;;;;;;57.97;2.50;;;;;;;;;;5091327;28;20859;-72
2022/04/24 01:24:09;;;;;;;58.00;2.40;;;;;;;;;;5090765;28;20449;-73
2022/04/24 01:26:37;;;;;;;58.00;2.50;;;;;;;;;;5091408;28;20438;-74
2022/04/24 01:29:05;;;;;;;58.17;2.70;;;;;;;;;;5090175;28;20471;-74
2022/04/24 01:31:32;;;;;;;58.50;3.23;;;;;;;;;;5091305;28;20454;-73
2022/04/24 01:33:59;;;;;;;57.97;2.30;;;;;;;;;;5091094;28;20850;-73
2022/04/24 01:36:26;;;;;;;57.97;2.40;;;;;;;;;;5090747;28;20537;-74
2022/04/24 01:38:55;;;;;;;57.90;2.50;;;;;;;;;;5088972;28;20462;-73
2022/04/24 01:41:22;;;;;;;57.90;2.50;;;;;;;;;;5090847;28;20454;-73
2022/04/24 01:43:49;;;;;;;57.77;2.30;;;;;;;;;;5091211;28;20681;-74
2022/04/24 01:46:17;;;;;;;58.00;2.40;;;;;;;;;;5088551;28;20862;-74
2022/04/24 01:48:44;;;;;;;57.90;2.50;;;;;;;;;;5084200;28;152646;-74
2022/04/24 01:51:12;;;;;;;58.70;4.20;;;;;;;;;;5090899;28;20460;-74
2022/04/24 01:53:39;;;;;;;57.97;2.40;;;;;;;;;;5091889;28;20585;-74
2022/04/24 01:56:09;;;;;;;57.87;2.50;;;;;;;;;;5091758;28;20474;-71
2022/04/24 01:58:36;;;;;;;58.00;2.70;;;;;;;;;;5090700;28;20491;-71
2022/04/24 02:01:04;;;;;;;58.03;2.60;;;;;;;;;;5091571;28;20457;-71
2022/04/24 02:03:32;;;;;;;57.87;2.80;;;;;;;;;;5091471;28;20442;-71
2022/04/24 02:05:59;;;;;;;57.93;2.70;;;;;;;;;;5091710;28;20824;-72
2022/04/24 02:08:27;;;;;;;57.97;2.50;;;;;;;;;;5090812;28;20461;-71
2022/04/24 02:10:54;;;;;;;58.30;3.07;;;;;;;;;;5091286;28;20446;-72
2022/04/24 02:13:22;;;;;;;58.00;2.50;;;;;;;;;;5091551;28;20459;-73
2022/04/24 02:15:50;;;;;;;57.97;2.50;;;;;;;;;;5091592;28;20463;-72
2022/04/24 02:18:17;;;;;;;58.70;3.37;;;;;;;;;;5090467;28;20875;-73
2022/04/24 02:20:44;;;;;;;57.80;2.50;;;;;;;;;;5091712;28;20461;-73
2022/04/24 02:23:11;;;;;;;57.97;2.60;;;;;;;;;;5091647;28;20820;-73
2022/04/24 02:25:38;;;;;;;58.00;2.60;;;;;;;;;;5091489;28;20445;-73
2022/04/24 02:28:06;;;;;;;58.20;2.90;;;;;;;;;;5091190;28;20445;-72
2022/04/24 02:30:35;;;;;;;58.07;2.57;;;;;;;;;;5091290;28;20986;-72
2022/04/24 02:33:02;;;;;;;58.13;2.70;;;;;;;;;;5091301;28;20465;-73
2022/04/24 02:35:30;;;;;;;58.00;2.60;;;;;;;;;;5091407;28;20493;-73
2022/04/24 02:37:57;;;;;;;58.13;2.50;;;;;;;;;;5090649;28;20573;-72
2022/04/24 02:40:25;;;;;;;57.97;2.53;;;;;;;;;;5091045;28;20473;-73
2022/04/24 02:42:52;;;;;;;59.13;3.17;;;;;;;;;;5091029;28;20456;-73
2022/04/24 02:45:20;;;;;;;58.40;3.10;;;;;;;;;;5091320;28;20481;-73
2022/04/24 02:47:49;;;;;;;58.10;2.90;;;;;;;;;;5091004;28;20446;-72
2022/04/24 02:50:16;;;;;;;58.20;2.90;;;;;;;;;;5094587;28;20477;-72
2022/04/24 02:52:47;;;;;;;57.97;2.67;;;;;;;;;;5095058;28;20457;-72
2022/04/24 02:55:15;;;;;;;58.60;3.37;;;;;;;;;;5094668;28;20828;-71
2022/04/24 02:57:42;;;;;;;58.60;2.93;;;;;;;;;;5093910;28;20482;-72
2022/04/24 03:00:10;;;;;;;58.03;2.90;;;;;;;;;;5094728;28;20465;-71
2022/04/24 03:02:41;;;;;;;58.13;3.10;;;;;;;;;;5094485;28;20832;-72
2022/04/24 03:05:10;;;;;;;58.70;3.57;;;;;;;;;;5094720;28;20456;-72
2022/04/24 03:07:37;;;;;;;57.93;2.60;;;;;;;;;;5093679;28;20955;-72
2022/04/24 03:10:04;;;;;;;58.90;4.03;;;;;;;;;;5094060;28;20561;-72
2022/04/24 03:12:31;;;;;;;59.10;3.50;;;;;;;;;;5094741;28;20453;-72
2022/04/24 03:14:58;;;;;;;58.17;2.80;;;;;;;;;;5094526;28;20477;-72
2022/04/24 03:17:26;;;;;;;58.57;3.47;;;;;;;;;;5093654;28;21005;-72
2022/04/24 03:19:53;;;;;;;58.13;2.90;;;;;;;;;;5094301;28;20475;-72
2022/04/24 03:22:22;;;;;;;58.87;4.97;;;;;;;;;;5094094;28;20832;-72
2022/04/24 03:24:49;;;;;;;57.87;2.70;;;;;;;;;;5094323;28;20826;-72
2022/04/24 03:27:16;;;;;;;58.13;2.47;;;;;;;;;;5093313;28;21015;-72
2022/04/24 03:29:44;;;;;;;58.47;3.70;;;;;;;;;;5094133;28;20469;-72
2022/04/24 03:32:11;;;;;;;58.33;3.27;;;;;;;;;;5094078;28;20451;-72
2022/04/24 03:34:38;;;;;;;58.17;3.57;;;;;;;;;;5093835;28;20453;-73
2022/04/24 03:37:05;;;;;;;59.20;3.73;;;;;;;;;;5093591;28;20457;-72
2022/04/24 03:39:34;;;;;;;58.20;2.90;;;;;;;;;;5093681;28;20474;-72
2022/04/24 03:42:01;;;;;;;58.13;2.63;;;;;;;;;;5094021;28;20450;-72
2022/04/24 03:44:28;;;;;;;58.20;2.70;;;;;;;;;;5093966;28;20450;-73
2022/04/24 03:46:56;;;;;;;57.90;2.67;;;;;;;;;;5093586;28;20442;-73
2022/04/24 03:49:23;;;;;;;58.37;3.93;;;;;;;;;;5092942;28;20849;-73
2022/04/24 03:51:50;;;;;;;58.10;2.80;;;;;;;;;;5093591;28;20450;-73
2022/04/24 03:54:17;;;;;;;58.07;3.43;;;;;;;;;;5093685;28;20829;-72
2022/04/24 03:56:46;;;;;;;58.13;2.70;;;;;;;;;;5094007;28;20452;-73
2022/04/24 03:59:13;;;;;;;58.10;2.67;;;;;;;;;;5092504;28;20490;-72
2022/04/24 04:01:41;;;;;;;57.93;2.70;;;;;;;;;;5092498;28;20968;-73
2022/04/24 04:04:08;;;;;;;58.03;2.70;;;;;;;;;;5093206;28;20852;-73
2022/04/24 04:06:35;;;;;;;57.73;2.70;;;;;;;;;;5093485;28;20821;-73
2022/04/24 04:09:03;;;;;;;58.27;2.70;;;;;;;;;;5092657;28;20852;-73
2022/04/24 04:11:30;;;;;;;58.10;2.70;;;;;;;;;;5093213;28;20965;-73
2022/04/24 04:13:59;;;;;;;58.07;2.70;;;;;;;;;;5093240;28;20437;-72
2022/04/24 04:16:26;;;;;;;58.17;2.73;;;;;;;;;;5093108;28;20455;-73
2022/04/24 04:18:53;;;;;;;57.97;3.00;;;;;;;;;;5092379;28;20584;-74
2022/04/24 04:21:20;;;;;;;58.30;3.20;;;;;;;;;;5093413;28;20540;-74
2022/04/24 04:23:47;;;;;;;58.27;2.70;;;;;;;;;;5092950;28;20457;-73
2022/04/24 04:26:17;;;;;;;57.97;2.70;;;;;;;;;;5093079;28;20453;-73
2022/04/24 04:28:44;;;;;;;58.20;2.70;;;;;;;;;;5092200;28;20465;-73
2022/04/24 04:31:12;;;;;;;58.60;3.17;;;;;;;;;;5093007;28;20451;-74
2022/04/24 04:33:40;;;;;;;58.30;2.80;;;;;;;;;;5092943;28;20599;-73
2022/04/24 04:36:08;;;;;;;58.60;3.67;;;;;;;;;;5093182;28;20484;-73
2022/04/24 04:38:35;;;;;;;58.27;2.90;;;;;;;;;;5092089;28;20493;-73
2022/04/24 04:41:03;;;;;;;58.17;2.70;;;;;;;;;;5093060;28;20457;-73
2022/04/24 04:43:30;;;;;;;58.37;2.73;;;;;;;;;;5092545;28;20456;-74
2022/04/24 04:45:57;;;;;;;57.87;2.60;;;;;;;;;;5092851;28;20456;-73
2022/04/24 04:48:26;;;;;;;58.30;2.70;;;;;;;;;;5092014;28;20483;-72
2022/04/24 04:50:53;;;;;;;58.13;2.50;;;;;;;;;;5092639;28;20503;-72
2022/04/24 04:53:20;;;;;;;58.27;2.60;;;;;;;;;;5092468;28;20829;-73
2022/04/24 04:55:47;;;;;;;58.33;2.60;;;;;;;;;;5092366;28;20536;-72
2022/04/24 04:58:14;;;;;;;58.23;2.57;;;;;;;;;;5091655;28;20481;-70
2022/04/24 05:00:42;;;;;;;58.83;3.23;;;;;;;;;;5092683;28;20460;-72
2022/04/24 05:03:09;;;;;;;58.13;2.73;;;;;;;;;;5092373;28;20470;-74
2022/04/24 05:05:38;;;;;;;58.17;2.77;;;;;;;;;;5092446;28;20444;-73
2022/04/24 05:08:05;;;;;;;58.17;2.67;;;;;;;;;;5091528;28;20441;-72
2022/04/24 05:10:32;;;;;;;58.27;2.73;;;;;;;;;;5092244;28;20505;-74
2022/04/24 05:13:00;;;;;;;57.97;2.40;;;;;;;;;;5091684;28;20459;-73
2022/04/24 05:15:27;;;;;;;58.07;2.70;;;;;;;;;;5092279;28;20639;-73
2022/04/24 05:17:54;;;;;;;58.23;2.73;;;;;;;;;;5091628;28;20488;-72
2022/04/24 05:20:21;;;;;;;58.43;2.67;;;;;;;;;;5092087;28;20875;-72
2022/04/24 05:22:50;;;;;;;58.47;2.80;;;;;;;;;;5092131;28;20453;-71
2022/04/24 05:25:17;;;;;;;58.28;2.80;;;;;;;;;;5092055;28;20470;-73
2022/04/24 05:27:44;;;;;;;58.28;2.85;;;;;;;;;;5091692;28;20627;-74
2022/04/24 05:30:11;;;;;;;58.23;2.77;;;;;;;;;;5092210;28;20910;-74
2022/04/24 05:32:39;;;;;;;58.23;2.80;;;;;;;;;;5091983;28;20522;-74
2022/04/24 05:35:07;;;;;;;58.27;2.77;;;;;;;;;;5091893;28;20454;-74
2022/04/24 05:37:34;;;;;;;58.45;2.70;;;;;;;;;;5090848;28;20454;-73
2022/04/24 05:40:04;;;;;;;58.30;2.70;;;;;;;;;;5091728;28;20604;-72
2022/04/24 05:42:31;;;;;;;58.30;2.70;;;;;;;;;;5092848;28;20858;-74
2022/04/24 05:45:00;;;;;;;58.17;2.60;;;;;;;;;;5093516;28;20453;-73
2022/04/24 05:47:27;;;;;;;58.27;2.90;;;;;;;;;;5091441;28;21106;-73
2022/04/24 05:49:54;;;;;;;58.90;3.10;;;;;;;;;;5091373;28;20472;-74
2022/04/24 05:52:23;;;;;;;58.17;2.75;;;;;;;;;;5091616;28;20528;-73
2022/04/24 05:54:50;;;;;;;58.47;2.80;;;;;;;;;;5092369;28;20216;-73
2022/04/24 05:57:19;;;;;;;58.17;2.70;;;;;;;;;;5091057;28;20968;-74
2022/04/24 05:59:46;;;;;;;58.58;2.78;;;;;;;;;;5091412;28;21005;-71
2022/04/24 06:02:13;;;;;;;58.45;2.92;;;;;;;;;;5091662;28;20210;-72
2022/04/24 06:04:40;;;;;;;58.35;2.97;;;;;;;;;;5091541;28;20232;-72
2022/04/24 06:07:07;;;;;;;58.50;2.75;;;;;;;;;;5091306;28;20215;-73
2022/04/24 06:09:35;;;;;;;58.23;2.80;;;;;;;;;;5091748;28;20225;-73
2022/04/24 06:12:02;;;;;;;58.13;2.60;;;;;;;;;;5091716;28;20448;-73
2022/04/24 06:14:30;;;;;;;58.27;2.70;;;;;;;;;;5091522;28;20537;-73
2022/04/24 06:17:00;;;;;;;58.13;2.67;;;;;;;;;;5092195;28;20457;-73
2022/04/24 06:19:27;;;;;;;57.80;2.80;;;;;;;;;;5090956;28;20488;-72
2022/04/24 06:21:54;;;;;;;58.50;3.00;;;;;;;;;;5091959;28;20447;-73
2022/04/24 06:24:21;;;;;;;58.47;2.70;;;;;;;;;;5093832;28;20455;-73
2022/04/24 06:26:48;;;;;;;58.33;2.93;;;;;;;;;;5095570;28;20451;-74
2022/04/24 06:29:15;;;;;;;58.50;2.83;;;;;;;;;;5094866;28;20556;-73
2022/04/24 06:31:44;;;;;;;58.53;2.85;;;;;;;;;;5095270;28;20452;-73
2022/04/24 06:34:11;;;;;;;58.27;2.80;;;;;;;;;;5095025;28;20208;-72
2022/04/24 06:36:38;;;;;;;58.27;2.80;;;;;;;;;;5095784;28;20453;-73
2022/04/24 06:39:06;;;;;;;58.38;2.70;;;;;;;;;;5094953;28;20494;-74
2022/04/24 06:41:33;;;;;;;58.47;2.85;;;;;;;;;;5095756;28;20836;-74
2022/04/24 06:44:00;;;;;;;58.47;2.90;;;;;;;;;;5095994;28;20204;-74
2022/04/24 06:46:27;;;;;;;58.58;2.90;;;;;;;;;;5095615;28;20525;-74
2022/04/24 06:48:56;;;;;;;58.28;2.65;;;;;;;;;;5094683;28;20312;-74
2022/04/24 06:51:23;;;;;;;58.17;2.70;;;;;;;;;;5095768;28;20206;-73
2022/04/24 06:53:50;;;;;;;58.17;2.73;;;;;;;;;;5095157;28;20535;-74
2022/04/24 06:56:20;;;;;;;57.97;2.60;;;;;;;;;;5096557;28;20534;-74
2022/04/24 06:58:48;;;;;;;58.17;2.73;;;;;;;;;;5095854;28;20495;-74
2022/04/24 07:01:15;;;;;;;58.27;2.67;;;;;;;;;;5098621;28;20806;-73
2022/04/24 07:03:42;;;;;;;58.23;2.70;;;;;;;;;;5098477;28;20460;-74
2022/04/24 07:06:11;;;;;;;58.10;2.67;;;;;;;;;;5097842;28;20520;-73
2022/04/24 07:08:38;;;;;;;57.87;2.90;;;;;;;;;;5097639;28;20499;-72
2022/04/24 07:11:05;;;;;;;57.47;2.73;;;;;;;;;;5099312;28;20483;-74
2022/04/24 07:13:32;;;;;;;58.27;2.87;;;;;;;;;;5098956;28;20505;-73
2022/04/24 07:15:59;;;;;;;58.42;2.90;;;;;;;;;;5098391;28;20530;-74
2022/04/24 07:18:28;;;;;;;58.07;2.73;;;;;;;;;;5098328;28;20233;-74
2022/04/24 07:20:56;;;;;;;58.03;2.57;;;;;;;;;;5097373;28;20833;-73
2022/04/24 07:23:24;;;;;;;58.37;2.63;;;;;;;;;;5098991;28;20452;-74
2022/04/24 07:25:52;;;;;;;58.20;2.80;;;;;;;;;;5100584;28;20554;-74
2022/04/24 07:28:19;;;;;;;58.25;2.75;;;;;;;;;;5098161;28;20452;-74
2022/04/24 07:30:47;;;;;;;58.28;2.60;;;;;;;;;;5097499;28;20267;-72
2022/04/24 07:33:14;;;;;;;58.07;2.63;;;;;;;;;;5097823;28;20271;-74
2022/04/24 07:35:42;;;;;;;58.07;2.60;;;;;;;;;;5098005;28;20503;-73
2022/04/24 07:38:09;;;;;;;58.37;2.63;;;;;;;;;;5096109;28;20444;-73
2022/04/24 07:40:39;;;;;;;58.07;2.70;;;;;;;;;;5099376;28;20452;-74
2022/04/24 07:43:07;;;;;;;57.57;2.60;;;;;;;;;;5098589;28;20458;-74
2022/04/24 07:45:35;;;;;;;58.37;2.70;;;;;;;;;;5098653;28;20515;-73
2022/04/24 07:48:02;;;;;;;58.33;2.67;;;;;;;;;;5098302;28;20453;-74
2022/04/24 07:50:30;;;;;;;58.38;2.58;;;;;;;;;;5097999;28;20442;-73
2022/04/24 07:52:58;;;;;;;58.07;2.57;;;;;;;;;;5099037;28;20237;-74
2022/04/24 07:55:25;;;;;;;58.10;2.60;;;;;;;;;;5098587;28;20447;-74
2022/04/24 07:57:54;;;;;;;58.30;2.60;;;;;;;;;;5096986;28;20272;-74
2022/04/24 08:00:22;;;;;;;58.30;2.73;;;;;;;;;;5098091;28;20233;-74
2022/04/24 08:02:50;;;;;;;58.47;2.65;;;;;;;;;;5095221;28;20548;-73
2022/04/24 08:05:21;;;;;;;58.03;2.70;;;;;;;;;;5094999;28;20205;-74
2022/04/24 08:07:49;;;;;;;58.13;2.60;;;;;;;;;;5094508;28;20823;-74
2022/04/24 08:10:16;;;;;;;58.17;2.63;;;;;;;;;;5095333;28;20464;-74
2022/04/24 08:12:43;;;;;;;58.20;2.60;;;;;;;;;;5094177;28;20452;-74
2022/04/24 08:15:12;;;;;;;58.10;2.53;;;;;;;;;;5093616;28;20454;-74
2022/04/24 08:17:40;;;;;;;58.25;2.65;;;;;;;;;;5095436;28;20458;-75
2022/04/24 08:20:08;;;;;;;57.87;2.70;;;;;;;;;;5095635;28;20597;-74
2022/04/24 08:22:39;;;;;;;58.07;2.60;;;;;;;;;;5097072;28;20527;-74
2022/04/24 08:25:07;;;;;;;58.07;2.70;;;;;;;;;;5098262;28;20476;-73
2022/04/24 08:27:34;;;;;;;58.27;2.80;;;;;;;;;;5095310;28;20460;-74
2022/04/24 08:30:01;;;;;;;58.17;2.57;;;;;;;;;;5097741;28;20503;-75
2022/04/24 08:32:30;;;;;;;57.97;2.73;;;;;;;;;;5095110;28;20451;-73
2022/04/24 08:34:57;;;;;;;58.20;2.67;;;;;;;;;;5095105;28;20452;-74
2022/04/24 08:37:24;;;;;;;58.23;2.70;;;;;;;;;;5095984;28;20449;-74
2022/04/24 08:39:52;;;;;;;57.97;2.60;;;;;;;;;;5096830;28;20483;-74
2022/04/24 08:42:21;;;;;;;58.17;2.83;;;;;;;;;;5096019;28;20539;-75
2022/04/24 08:44:49;;;;;;;58.07;2.70;;;;;;;;;;5095724;28;20453;-74
2022/04/24 08:47:16;;;;;;;58.27;2.80;;;;;;;;;;5094855;28;20507;-75
2022/04/24 08:49:45;;;;;;;58.07;2.57;;;;;;;;;;5095057;28;20988;-74
2022/04/24 08:52:12;;;;;;;57.87;2.63;;;;;;;;;;5095407;28;20454;-75
2022/04/24 08:54:41;;;;;;;58.27;2.70;;;;;;;;;;5095806;28;20480;-75
2022/04/24 08:57:08;;;;;;;58.13;2.63;;;;;;;;;;5095466;28;20451;-74
2022/04/24 08:59:36;;;;;;;58.07;2.80;;;;;;;;;;5097259;28;20487;-74
2022/04/24 09:02:04;;;;;;;58.23;2.73;;;;;;;;;;5095094;28;20449;-74
2022/04/24 09:04:33;;;;;;;58.17;2.50;;;;;;;;;;5093278;28;20533;-75
2022/04/24 09:07:04;;;;;;;58.13;2.77;;;;;;;;;;5093550;28;20466;-74
2022/04/24 09:09:32;;;;;;;58.07;2.40;;;;;;;;;;5092944;28;20545;-74
2022/04/24 09:12:09;;;;;;;58.03;2.67;;;;;;;;;;5096632;28;20452;-72
2022/04/24 09:14:36;;;;;;;57.87;2.50;;;;;;;;;;5097716;28;20452;-74
2022/04/24 09:17:05;;;;;;;58.20;2.70;;;;;;;;;;5098835;28;20492;-74
2022/04/24 09:19:33;;;;;;;57.87;2.60;;;;;;;;;;5097988;28;20583;-74
2022/04/24 09:22:06;;;;;;;58.03;2.57;;;;;;;;;;5097654;28;20525;-74
2022/04/24 09:24:40;;;;;;;57.87;2.47;;;;;;;;;;5096129;28;20523;-74
2022/04/24 09:27:07;;;;;;;58.13;2.50;;;;;;;;;;5098018;28;20452;-74
2022/04/24 09:29:34;;;;;;;58.03;2.70;;;;;;;;;;5098054;28;20461;-74
2022/04/24 09:32:01;;;;;;;58.03;2.40;;;;;;;;;;5097527;28;21057;-74
2022/04/24 09:34:31;;;;;;;58.03;2.47;;;;;;;;;;5097439;28;20533;-74
2022/04/24 09:37:02;;;;;;;57.97;2.70;;;;;;;;;;5095861;28;20461;-74
2022/04/24 09:39:30;;;;;;;58.03;2.80;;;;;;;;;;5095991;28;20568;-73
2022/04/24 09:42:04;;;;;;;58.10;2.47;;;;;;;;;;5094502;28;20458;-74
2022/04/24 09:44:37;;;;;;;57.87;2.50;;;;;;;;;;5093181;28;20511;-75
2022/04/24 09:47:04;;;;;;;58.10;2.60;;;;;;;;;;5095644;28;20457;-74
2022/04/24 09:49:34;;;;;;;58.03;2.70;;;;;;;;;;5093858;28;20563;-75
2022/04/24 09:52:02;;;;;;;58.30;2.63;;;;;;;;;;5095482;28;20454;-74
2022/04/24 09:54:31;;;;;;;58.07;2.67;;;;;;;;;;5095516;28;20444;-74
2022/04/24 09:56:59;;;;;;;58.00;2.50;;;;;;;;;;5094749;28;20536;-73
2022/04/24 09:59:26;;;;;;;58.10;2.70;;;;;;;;;;5095611;28;20487;-74
2022/04/24 10:01:54;;;;;;;58.30;2.80;;;;;;;;;;5099077;28;20521;-75
2022/04/24 10:04:22;;;;;;;57.73;2.57;;;;;;;;;;5097826;28;20540;-74
2022/04/24 10:06:49;;;;;;;58.10;2.70;;;;;;;;;;5098563;28;20467;-74
2022/04/24 10:09:17;;;;;;;58.07;2.60;;;;;;;;;;5097138;28;20464;-74
2022/04/24 10:11:46;;;;;;;58.00;2.77;;;;;;;;;;5099160;28;20882;-75
2022/04/24 10:14:14;;;;;;;58.07;2.80;;;;;;;;;;5098898;28;20479;-75
2022/04/24 10:17:05;;;;;;;57.97;2.50;;;;;;;;;;5098153;28;20520;-75
2022/04/24 10:19:39;;;;;;;58.30;2.60;;;;;;;;;;5097082;28;20900;-73
2022/04/24 10:22:08;;;;;;;58.07;2.63;;;;;;;;;;5097777;28;20463;-76
2022/04/24 10:24:42;;;;;;;58.17;2.80;;;;;;;;;;5098426;28;20767;-75
2022/04/24 10:27:12;;;;;;;58.07;2.50;;;;;;;;;;5096332;28;20445;-75
2022/04/24 10:29:49;;;;;;;57.97;2.57;;;;;;;;;;5096535;28;20981;-75
2022/04/24 10:32:25;;;;;;;58.10;2.50;;;;;;;;;;5096357;28;20460;-75
2022/04/24 10:34:52;;;;;;;58.10;2.57;;;;;;;;;;5097232;28;20447;-75
2022/04/24 10:37:26;;;;;;;57.97;2.70;;;;;;;;;;5096531;28;20448;-75
2022/04/24 10:39:55;;;;;;;58.03;2.63;;;;;;;;;;5096207;28;21048;-75
2022/04/24 10:42:31;;;;;;;58.00;2.77;;;;;;;;;;5096542;28;20451;-75
2022/04/24 10:45:05;;;;;;;57.97;2.73;;;;;;;;;;5096953;28;20459;-75
2022/04/24 10:47:41;;;;;;;57.87;2.70;;;;;;;;;;5096677;28;20459;-73
2022/04/24 10:50:09;;;;;;;58.20;2.67;;;;;;;;;;5105480;28;20487;-76
2022/04/24 10:52:39;;;;;;;58.10;2.77;;;;;;;;;;5103364;28;20471;-75
2022/04/24 10:55:09;;;;;;;58.30;2.80;;;;;;;;;;5106667;28;20455;-74
2022/04/24 10:57:43;;;;;;;58.10;2.60;;;;;;;;;;5105112;28;20537;-74
2022/04/24 11:00:19;;;;;;;57.97;2.60;;;;;;;;;;5101671;28;20493;-76
2022/04/24 11:02:46;;;;;;;58.17;2.63;;;;;;;;;;5102686;28;20869;-75
2022/04/24 11:05:13;;;;;;;57.83;2.43;;;;;;;;;;5104725;28;20455;-75
2022/04/24 11:07:40;;;;;;;58.17;2.73;;;;;;;;;;5104063;28;20464;-76
2022/04/24 11:10:09;;;;;;;57.97;2.63;;;;;;;;;;5098567;28;20537;-76
2022/04/24 11:12:37;;;;;;;58.17;2.70;;;;;;;;;;5102231;28;20446;-75
2022/04/24 11:15:09;;;;;;;58.17;2.70;;;;;;;;;;5098144;28;20508;-78
2022/04/24 11:17:37;;;;;;;58.07;2.80;;;;;;;;;;5096701;28;20523;-75
2022/04/24 11:20:09;;;;;;;57.83;2.57;;;;;;;;;;5098284;28;20540;-76
2022/04/24 11:22:45;;;;;;;58.03;2.60;;;;;;;;;;5100561;28;20452;-76
2022/04/24 11:25:14;;;;;;;57.97;2.57;;;;;;;;;;5107489;28;20445;-76
2022/04/24 11:27:42;;;;;;;58.07;2.57;;;;;;;;;;5106781;28;20482;-75
2022/04/24 11:30:16;;;;;;;57.67;2.30;;;;;;;;;;5099453;28;20468;-75
2022/04/24 11:32:55;;;;;;;57.93;2.47;;;;;;;;;;5112609;28;20503;-75
2022/04/24 11:35:23;;;;;;;58.00;2.50;;;;;;;;;;5106243;28;20450;-74
2022/04/24 11:37:50;;;;;;;57.77;2.50;;;;;;;;;;5102571;28;20452;-75
2022/04/24 11:40:18;;;;;;;57.87;2.67;;;;;;;;;;5101357;28;20481;-75
2022/04/24 11:42:45;;;;;;;57.77;2.43;;;;;;;;;;5100850;28;20947;-74
2022/04/24 11:50:51;;;;;;;57.93;2.60;;;;;;;;;;5104213;28;20428;-74
2022/04/24 11:53:18;;;;;;;57.97;2.30;;;;;;;;;;5098135;28;20517;-75
2022/04/24 11:56:03;;;;;;;58.00;2.60;;;;;;;;;;5099557;28;20497;-76
2022/04/24 11:58:34;;;;;;;57.90;2.50;;;;;;;;;;5100134;28;20537;-76
2022/04/24 12:01:02;;;;;;;57.93;2.40;;;;;;;;;;5097176;28;20499;-76
2022/04/24 12:03:32;;;;;;;57.97;2.50;;;;;;;;;;5096934;28;20465;-76
2022/04/24 12:05:59;;;;;;;57.87;2.40;;;;;;;;;;5096152;28;20450;-74
2022/04/24 12:08:27;;;;;;;57.80;2.63;;;;;;;;;;5093404;28;20477;-75
2022/04/24 12:10:55;;;;;;;57.90;2.53;;;;;;;;;;5094726;28;20840;-75
2022/04/24 12:13:23;;;;;;;57.67;2.60;;;;;;;;;;5096057;28;20500;-75
2022/04/24 12:15:53;;;;;;;57.77;2.50;;;;;;;;;;5097195;28;20450;-76
2022/04/24 12:18:24;;;;;;;57.93;2.50;;;;;;;;;;5096992;28;20481;-75
2022/04/24 12:20:53;;;;;;;57.83;2.70;;;;;;;;;;5095143;28;20491;-75
2022/04/24 12:23:20;;;;;;;57.97;2.80;;;;;;;;;;5094707;28;20529;-75
2022/04/24 12:25:48;;;;;;;57.87;2.70;;;;;;;;;;5096576;28;20449;-75
2022/04/24 12:28:27;;;;;;;57.97;2.50;;;;;;;;;;5095869;28;20453;-76
2022/04/24 12:30:55;;;;;;;57.73;2.70;;;;;;;;;;5098250;28;20469;-75
2022/04/24 12:33:23;;;;;;;57.87;2.60;;;;;;;;;;5096820;28;20484;-74
2022/04/24 12:35:50;;;;;;;58.03;2.60;;;;;;;;;;5100084;28;20450;-75
2022/04/24 12:38:20;;;;;;;57.87;2.67;;;;;;;;;;5100693;28;20482;-75
2022/04/24 12:40:54;;;;;;;58.10;2.50;;;;;;;;;;5101299;28;20478;-74
2022/04/24 12:43:25;;;;;;;57.67;2.50;;;;;;;;;;5100792;28;20478;-75
2022/04/24 12:45:53;;;;;;;57.87;2.53;;;;;;;;;;5102095;28;20507;-75
2022/04/24 12:48:20;;;;;;;57.67;2.57;;;;;;;;;;5099961;28;20468;-75
2022/04/24 12:50:48;;;;;;;58.00;2.47;;;;;;;;;;5100023;28;20984;-74
2022/04/24 12:53:16;;;;;;;57.93;2.43;;;;;;;;;;5097872;28;20503;-75
2022/04/24 12:55:44;;;;;;;57.67;2.50;;;;;;;;;;5099723;28;20631;-75
2022/04/24 12:58:14;;;;;;;57.80;2.50;;;;;;;;;;5099243;28;20474;-74
2022/04/24 13:00:41;;;;;;;57.70;2.50;;;;;;;;;;5096116;28;20568;-75
2022/04/24 13:03:09;;;;;;;57.57;2.40;;;;;;;;;;5096194;28;20540;-75
2022/04/24 13:05:38;;;;;;;57.80;2.67;;;;;;;;;;5094793;28;20453;-76
2022/04/24 13:08:05;;;;;;;57.90;2.60;;;;;;;;;;5093945;28;20458;-75
2022/04/24 13:10:32;;;;;;;57.73;2.70;;;;;;;;;;5093642;28;20533;-75
2022/04/24 13:13:01;;;;;;;57.57;2.43;;;;;;;;;;5093968;28;20489;-73
2022/04/24 13:15:30;;;;;;;57.83;2.50;;;;;;;;;;5094294;28;20446;-76
2022/04/24 13:18:09;;;;;;;57.57;2.40;;;;;;;;;;5094240;28;20454;-75
2022/04/24 13:20:38;;;;;;;57.73;2.57;;;;;;;;;;5092657;28;20572;-73
2022/04/24 13:23:05;;;;;;;57.70;2.50;;;;;;;;;;5093499;28;20555;-75
2022/04/24 13:25:33;;;;;;;57.90;2.60;;;;;;;;;;5094785;28;20450;-75
2022/04/24 13:28:01;;;;;;;57.67;2.70;;;;;;;;;;5093721;28;20515;-74
2022/04/24 13:30:29;;;;;;;57.80;2.50;;;;;;;;;;5092916;28;20522;-73
2022/04/24 13:32:56;;;;;;;57.77;2.40;;;;;;;;;;5093202;28;20946;-74
2022/04/24 13:35:23;;;;;;;57.67;2.50;;;;;;;;;;5093292;28;20454;-74
2022/04/24 13:40:36;;;;;;;57.83;2.63;;;;;;;;;;5092313;28;20916;-71
2022/04/24 13:43:05;;;;;;;57.77;2.47;;;;;;;;;;5091982;28;21006;-71
2022/04/24 13:45:33;;;;;;;57.80;2.63;;;;;;;;;;5091848;28;20979;-71
2022/04/24 13:48:01;;;;;;;57.67;2.27;;;;;;;;;;5091915;28;20498;-70
2022/04/24 13:50:29;;;;;;;57.73;2.40;;;;;;;;;;5087223;28;20492;-72
2022/04/24 13:52:56;;;;;;;57.90;2.40;;;;;;;;;;5083689;28;20528;-74
2022/04/24 13:55:23;;;;;;;57.73;2.50;;;;;;;;;;5091645;28;20449;-72
2022/04/24 13:57:51;;;;;;;57.67;2.53;;;;;;;;;;5090941;28;20458;-73
2022/04/24 14:00:20;;;;;;;57.83;2.50;;;;;;;;;;5091700;28;20463;-71
2022/04/24 14:02:49;;;;;;;57.80;2.60;;;;;;;;;;5092488;28;20533;-74
2022/04/24 14:05:16;;;;;;;57.73;2.90;;;;;;;;;;5091848;28;20457;-74
2022/04/24 14:07:44;;;;;;;57.60;2.50;;;;;;;;;;5089109;28;20464;-71
2022/04/24 14:10:11;;;;;;;57.77;2.50;;;;;;;;;;5084555;28;20473;-73
2022/04/24 14:12:39;;;;;;;57.57;2.40;;;;;;;;;;5072852;28;20809;-74
2022/04/24 14:15:07;;;;;;;57.63;2.30;;;;;;;;;;5079353;28;20886;-74
2022/04/24 14:17:36;;;;;;;57.70;2.60;;;;;;;;;;5089585;28;20456;-74
2022/04/24 14:20:03;;;;;;;57.77;2.60;;;;;;;;;;5090569;28;20476;-74
2022/04/24 14:22:30;;;;;;;57.77;2.60;;;;;;;;;;5090217;28;20532;-73
2022/04/24 14:24:57;;;;;;;57.83;2.60;;;;;;;;;;5090432;28;20464;-74
2022/04/24 14:27:25;;;;;;;57.77;2.50;;;;;;;;;;5090411;28;20466;-74
2022/04/24 14:29:52;;;;;;;58.00;2.60;;;;;;;;;;5090811;28;21064;-73
2022/04/24 14:32:20;;;;;;;57.87;2.63;;;;;;;;;;5090498;28;20449;-75
2022/04/24 14:34:49;;;;;;;58.00;2.60;;;;;;;;;;5091298;28;20507;-75
2022/04/24 14:37:16;;;;;;;57.90;2.50;;;;;;;;;;5091932;28;20525;-73
2022/04/24 14:39:43;;;;;;;58.07;2.60;;;;;;;;;;5093129;28;20474;-72
2022/04/24 14:42:11;;;;;;;58.17;2.47;;;;;;;;;;5090487;28;20495;-73
2022/04/24 14:44:38;;;;;;;58.03;2.47;;;;;;;;;;5091414;28;20450;-72